createdAt,value
2016-11-05T11:51:53.232Z,95.75
2016-11-05T11:52:33.768Z,95.36
2016-11-05T11:53:14.269Z,94.7
2016-11-05T11:53:54.793Z,95.46
2016-11-05T11:54:35.315Z,95.17
2016-11-05T11:55:15.844Z,94.79
2016-11-05T11:55:56.388Z,95.08
2016-11-05T11:56:36.891Z,95.65
2016-11-05T11:57:17.409Z,95.65
2016-11-05T11:57:57.939Z,95.84
2016-11-05T11:58:38.470Z,96.51
2016-11-05T11:59:18.977Z,96.7
2016-11-05T11:59:59.534Z,96.22
2016-11-05T12:00:40.067Z,96.12
2016-11-05T12:01:20.610Z,96.51
2016-11-05T12:02:01.169Z,96.12
2016-11-05T12:02:41.688Z,96.7
2016-11-05T12:03:22.242Z,96.51
2016-11-05T12:04:02.770Z,95.65
2016-11-05T12:04:43.291Z,95.84
2016-11-05T12:05:23.829Z,96.22
2016-11-05T12:06:04.355Z,96.51
2016-11-05T12:06:44.883Z,95.84
2016-11-05T12:07:25.420Z,95.46
2016-11-05T12:08:05.991Z,95.08
2016-11-05T12:08:46.530Z,95.65
2016-11-05T12:09:27.055Z,95.56
2016-11-05T12:10:07.566Z,96.7
2016-11-05T12:10:48.087Z,96.7
2016-11-05T12:11:28.608Z,96.89
2016-11-05T12:12:09.140Z,97.27
2016-11-05T12:12:49.706Z,97.08
2016-11-05T12:13:30.233Z,96.7
2016-11-05T12:14:10.762Z,97.17
2016-11-05T12:14:51.284Z,96.7
2016-11-05T12:15:31.805Z,96.98
2016-11-05T12:16:12.344Z,97.17
2016-11-05T12:16:52.875Z,97.65
2016-11-05T12:17:33.381Z,97.74
2016-11-05T12:18:13.920Z,98.03
2016-11-05T12:18:54.447Z,97.55
2016-11-05T12:19:34.992Z,97.74
2016-11-05T12:20:15.522Z,98.03
2016-11-05T12:20:56.053Z,98.5
2016-11-05T12:21:36.581Z,98.88
2016-11-05T12:22:17.094Z,98.69
2016-11-05T12:22:57.641Z,98.6
2016-11-05T12:23:38.181Z,99.27
2016-11-05T12:24:18.728Z,98.69
2016-11-05T12:24:59.254Z,97.93
2016-11-05T12:25:39.797Z,97.74
2016-11-05T12:26:20.343Z,98.22
2016-11-05T12:27:00.910Z,97.93
2016-11-05T12:27:41.470Z,98.03
2016-11-05T12:28:22.019Z,97.46
2016-11-05T12:29:02.540Z,95.94
2016-11-05T12:29:43.071Z,95.94
2016-11-05T12:30:23.618Z,96.22
2016-11-05T12:31:04.158Z,96.7
2016-11-05T12:31:44.690Z,96.7
2016-11-05T12:32:25.211Z,96.7
2016-11-05T12:33:05.739Z,97.08
2016-11-05T12:33:46.290Z,97.93
2016-11-05T12:34:26.810Z,96.51
2016-11-05T12:35:07.340Z,95.65
2016-11-05T12:35:47.855Z,96.31
2016-11-05T12:36:28.379Z,96.03
2016-11-05T12:37:08.897Z,96.89
2016-11-05T12:37:49.430Z,96.6
2016-11-05T12:38:29.938Z,96.89
2016-11-05T12:39:10.469Z,96.89
2016-11-05T12:39:51.000Z,96.7
2016-11-05T12:40:31.534Z,96.79
2016-11-05T12:41:12.067Z,96.89
2016-11-05T12:41:52.593Z,96.51
2016-11-05T12:42:33.125Z,95.84
2016-11-05T12:43:13.662Z,95.46
2016-11-05T12:43:54.204Z,95.84
2016-11-05T12:44:34.757Z,96.6
2016-11-05T12:45:15.295Z,96.7
2016-11-05T12:45:55.862Z,96.7
2016-11-05T12:46:36.421Z,96.7
2016-11-05T12:47:16.933Z,96.7
2016-11-05T12:47:57.451Z,97.46
2016-11-05T12:48:37.993Z,96.98
2016-11-05T12:49:18.530Z,96.98
2016-11-05T12:49:59.078Z,96.79
2016-11-05T12:50:39.616Z,95.84
2016-11-05T12:51:20.202Z,96.22
2016-11-05T12:52:00.779Z,96.51
2016-11-05T12:52:41.321Z,96.89
2016-11-05T12:53:21.858Z,96.51
2016-11-05T12:54:02.398Z,95.27
2016-11-05T12:54:42.935Z,94.7
2016-11-05T12:55:23.477Z,94.79
2016-11-05T12:56:04.019Z,95.17
2016-11-05T12:56:44.529Z,95.65
2016-11-05T12:57:25.052Z,96.22
2016-11-05T12:58:05.579Z,95.84
2016-11-05T12:58:46.111Z,96.7
2016-11-05T12:59:26.642Z,96.89
2016-11-05T13:00:07.225Z,96.98
2016-11-05T13:00:47.749Z,96.79
2016-11-05T13:01:28.286Z,97.27
2016-11-05T13:02:08.810Z,97.08
2016-11-05T13:02:49.338Z,96.89
2016-11-05T13:03:29.870Z,97.74
2016-11-05T13:04:10.398Z,97.74
2016-11-05T13:04:50.938Z,97.93
2016-11-05T13:05:31.473Z,97.84
2016-11-05T13:06:12.005Z,98.32
2016-11-05T13:06:52.543Z,98.69
2016-11-05T13:07:33.083Z,98.6
2016-11-05T13:08:13.667Z,98.32
2016-11-05T13:08:54.228Z,96.7
2016-11-05T13:09:34.767Z,96.6
2016-11-05T13:10:15.346Z,95.94
2016-11-05T13:10:55.941Z,96.22
2016-11-05T13:11:36.504Z,95.94
2016-11-05T13:12:17.044Z,95.17
2016-11-05T13:12:57.583Z,94.51
2016-11-05T13:13:38.138Z,94.7
2016-11-05T13:14:18.681Z,94.79
2016-11-05T13:14:59.214Z,94.79
2016-11-05T13:15:39.742Z,94.89
2016-11-05T13:16:20.258Z,95.17
2016-11-05T13:17:00.793Z,94.22
2016-11-05T13:17:41.319Z,94.79
2016-11-05T13:18:21.862Z,94.89
2016-11-05T13:19:02.409Z,94.89
2016-11-05T13:19:42.965Z,94.03
2016-11-05T13:20:23.481Z,93.65
2016-11-05T13:21:04.006Z,94.22
2016-11-05T13:21:44.525Z,94.89
2016-11-05T13:22:25.110Z,94.98
2016-11-05T13:23:05.628Z,94.98
2016-11-05T13:23:46.189Z,94.51
2016-11-05T13:24:26.733Z,94.03
2016-11-05T13:25:07.267Z,94.13
2016-11-05T13:25:47.820Z,93.74
2016-11-05T13:26:28.351Z,94.03
2016-11-05T13:27:08.931Z,94.13
2016-11-05T13:27:49.470Z,93.55
2016-11-05T13:28:29.992Z,93.84
2016-11-05T13:29:10.570Z,92.7
2016-11-05T13:29:51.129Z,92.7
2016-11-05T13:30:31.673Z,93.18
2016-11-05T13:31:12.194Z,93.37
2016-11-05T13:31:52.743Z,93.27
2016-11-05T13:32:33.273Z,93.37
2016-11-05T13:33:13.826Z,93.65
2016-11-05T13:33:54.361Z,93.74
2016-11-05T13:34:34.899Z,93.65
2016-11-05T13:35:15.474Z,94.13
2016-11-05T13:35:55.991Z,94.13
2016-11-05T13:36:36.525Z,93.94
2016-11-05T13:37:17.151Z,93.84
2016-11-05T13:37:57.670Z,93.84
2016-11-05T13:38:38.198Z,93.55
2016-11-05T13:39:18.718Z,94.51
2016-11-05T13:39:59.256Z,93.55
2016-11-05T13:40:39.783Z,93.94
2016-11-05T13:41:20.290Z,94.13
2016-11-05T13:42:00.834Z,94.65
2016-11-05T13:42:41.362Z,95.12
2016-11-05T13:43:21.882Z,94.93
2016-11-05T13:44:02.413Z,95.22
2016-11-05T13:44:42.965Z,94.84
2016-11-05T13:45:23.486Z,94.84
2016-11-05T13:46:04.006Z,94.65
2016-11-05T13:46:44.541Z,94.65
2016-11-05T13:47:25.084Z,94.56
2016-11-05T13:48:05.632Z,94.37
2016-11-05T13:48:46.167Z,93.6
2016-11-05T13:49:26.699Z,93.22
2016-11-05T13:50:07.241Z,93.32
2016-11-05T13:50:47.777Z,93.51
2016-11-05T13:51:28.308Z,92.55
2016-11-05T13:52:08.864Z,93.22
2016-11-05T13:52:49.388Z,93.32
2016-11-05T13:53:29.936Z,93.98
2016-11-05T13:54:10.490Z,93.98
2016-11-05T13:54:51.018Z,93.89
2016-11-05T13:55:31.557Z,93.6
2016-11-05T13:56:12.096Z,93.41
2016-11-05T13:56:52.631Z,93.22
2016-11-05T13:57:33.165Z,93.41
2016-11-05T13:58:13.694Z,93.41
2016-11-05T13:58:54.222Z,93.41
2016-11-05T13:59:34.771Z,93.41
2016-11-05T14:00:15.310Z,93.22
2016-11-05T14:00:55.817Z,93.32
2016-11-05T14:01:36.346Z,93.7
2016-11-05T14:02:16.870Z,93.6
2016-11-05T14:02:57.394Z,93.41
2016-11-05T14:03:37.921Z,93.79
2016-11-05T14:04:18.468Z,94.27
2016-11-05T14:04:58.999Z,94.17
2016-11-05T14:05:39.612Z,92.36
2016-11-05T14:06:20.138Z,90.65
2016-11-05T14:07:00.722Z,90.56
2016-11-05T14:07:41.253Z,89.79
2016-11-05T14:08:21.772Z,90.17
2016-11-05T14:09:02.314Z,90.08
2016-11-05T14:09:42.837Z,90.36
2016-11-05T14:10:23.403Z,90.94
2016-11-05T14:11:03.952Z,91.03
2016-11-05T14:11:44.479Z,91.13
2016-11-05T14:12:25.011Z,91.79
2016-11-05T14:13:05.521Z,92.18
2016-11-05T14:13:46.043Z,92.27
2016-11-05T14:14:26.580Z,92.46
2016-11-05T14:15:07.181Z,93.13
2016-11-05T14:15:47.727Z,93.7
2016-11-05T14:16:28.259Z,94.17
2016-11-05T14:17:08.831Z,93.89
2016-11-05T14:17:49.405Z,93.89
2016-11-05T14:18:29.928Z,93.79
2016-11-05T14:19:10.445Z,92.65
2016-11-05T14:19:50.990Z,91.7
2016-11-05T14:20:31.505Z,90.65
2016-11-05T14:21:12.055Z,89.22
2016-11-05T14:21:52.567Z,88.46
2016-11-05T14:22:33.084Z,89.03
2016-11-05T14:23:13.622Z,88.65
2016-11-05T14:23:54.169Z,88.56
2016-11-05T14:24:34.702Z,87.7
2016-11-05T14:25:15.303Z,87.6
2016-11-05T14:25:55.831Z,88.08
2016-11-05T14:26:36.372Z,88.46
2016-11-05T14:27:16.926Z,89.03
2016-11-05T14:27:57.482Z,89.03
2016-11-05T14:28:38.029Z,89.22
2016-11-05T14:29:18.571Z,90.27
2016-11-05T14:29:59.092Z,90.08
2016-11-05T14:30:39.618Z,90.17
2016-11-05T14:31:20.117Z,91.03
2016-11-05T14:32:00.646Z,90.65
2016-11-05T14:32:41.204Z,90.46
2016-11-05T14:33:21.708Z,90.36
2016-11-05T14:34:02.248Z,88.93
2016-11-05T14:34:42.780Z,89.13
2016-11-05T14:35:23.322Z,88.84
2016-11-05T14:36:03.836Z,89.61
2016-11-05T14:36:44.402Z,89.51
2016-11-05T14:37:24.936Z,89.7
2016-11-05T14:38:05.460Z,89.89
2016-11-05T14:38:45.995Z,89.61
2016-11-05T14:39:26.597Z,89.22
2016-11-05T14:40:07.117Z,89.41
2016-11-05T14:40:47.656Z,89.79
2016-11-05T14:41:28.191Z,89.03
2016-11-05T14:42:08.710Z,87.98
2016-11-05T14:42:49.251Z,89.03
2016-11-05T14:43:29.836Z,89.13
2016-11-05T14:44:10.355Z,89.22
2016-11-05T14:44:50.882Z,89.13
2016-11-05T14:45:31.431Z,89.08
2016-11-05T14:46:11.946Z,89.03
2016-11-05T14:46:52.489Z,88.18
2016-11-05T14:47:33.046Z,89.32
2016-11-05T14:48:13.556Z,89.22
2016-11-05T14:48:54.082Z,89.61
2016-11-05T14:49:34.596Z,89.51
2016-11-05T14:50:15.112Z,90.46
2016-11-05T14:50:55.636Z,90.42
2016-11-05T14:51:36.176Z,89.94
2016-11-05T14:52:16.700Z,90.42
2016-11-05T14:52:57.246Z,90.17
2016-11-05T14:53:37.754Z,90.27
2016-11-05T14:54:18.289Z,89.41
2016-11-05T14:54:58.808Z,88.08
2016-11-05T14:55:39.359Z,88.08
2016-11-05T14:56:19.916Z,88.32
2016-11-05T14:57:00.454Z,88.65
2016-11-05T14:57:40.993Z,89.51
2016-11-05T14:58:21.533Z,89.61
2016-11-05T14:59:02.065Z,89.61
2016-11-05T14:59:42.625Z,90.27
2016-11-05T15:00:23.193Z,90.65
2016-11-05T15:01:03.719Z,90.27
2016-11-05T15:01:44.244Z,91.03
2016-11-05T15:02:24.780Z,90.84
2016-11-05T15:03:05.376Z,90.75
2016-11-05T15:03:45.915Z,89.7
2016-11-05T15:04:26.480Z,89.03
2016-11-05T15:05:07.065Z,89.61
2016-11-05T15:05:47.609Z,89.98
2016-11-05T15:06:28.141Z,90.46
2016-11-05T15:07:08.696Z,91.03
2016-11-05T15:07:49.264Z,91.51
2016-11-05T15:08:29.856Z,92.08
2016-11-05T15:09:10.435Z,92.08
2016-11-05T15:09:51.042Z,91.03
2016-11-05T15:10:31.769Z,90.27
2016-11-05T15:11:12.373Z,90.56
2016-11-05T15:11:52.888Z,90.46
2016-11-05T15:12:33.412Z,89.61
2016-11-05T15:13:13.937Z,90.36
2016-11-05T15:13:54.465Z,90.56
2016-11-05T15:14:35.030Z,90.42
2016-11-05T15:15:15.629Z,89.47
2016-11-05T15:15:56.197Z,88.79
2016-11-05T15:16:36.914Z,89.56
2016-11-05T15:17:17.561Z,89.47
2016-11-05T15:17:58.074Z,89.84
2016-11-05T15:18:38.607Z,89.56
2016-11-05T15:19:19.152Z,90.7
2016-11-05T15:19:59.671Z,91.08
2016-11-05T15:20:40.220Z,91.65
2016-11-05T15:21:21.017Z,92.32
2016-11-05T15:22:01.360Z,92.41
2016-11-05T15:22:41.892Z,92.79
2016-11-05T15:23:22.427Z,93.46
2016-11-05T15:24:02.957Z,93.84
2016-11-05T15:24:43.480Z,93.74
2016-11-05T15:25:24.006Z,93.65
2016-11-05T15:26:04.534Z,94.03
2016-11-05T15:26:45.056Z,93.74
2016-11-05T15:27:25.571Z,93.18
2016-11-05T15:28:06.101Z,92.99
2016-11-05T15:28:46.627Z,92.03
2016-11-05T15:29:27.169Z,91.94
2016-11-05T15:30:07.697Z,92.32
2016-11-05T15:30:48.223Z,91.84
2016-11-05T15:31:28.734Z,91.65
2016-11-05T15:32:09.265Z,91.75
2016-11-05T15:32:49.776Z,90.7
2016-11-05T15:33:30.315Z,89.27
2016-11-05T15:34:10.856Z,88.89
2016-11-05T15:34:51.384Z,89.18
2016-11-05T15:35:31.910Z,89.47
2016-11-05T15:36:12.442Z,89.18
2016-11-05T15:36:52.959Z,89.65
2016-11-05T15:37:33.482Z,90.22
2016-11-05T15:38:13.986Z,90.13
2016-11-05T15:38:54.518Z,91.27
2016-11-05T15:39:35.049Z,91.89
2016-11-05T15:40:15.555Z,92.32
2016-11-05T15:40:56.092Z,92.32
2016-11-05T15:41:36.615Z,92.51
2016-11-05T15:42:17.150Z,92.7
2016-11-05T15:42:57.663Z,92.89
2016-11-05T15:43:38.196Z,93.08
2016-11-05T15:44:18.710Z,92.51
2016-11-05T15:44:59.241Z,92.79
2016-11-05T15:45:39.774Z,92.32
2016-11-05T15:46:20.309Z,91.84
2016-11-05T15:47:00.828Z,91.94
2016-11-05T15:47:41.368Z,91.84
2016-11-05T15:48:21.901Z,93.08
2016-11-05T15:49:02.445Z,92.41
2016-11-05T15:49:42.973Z,92.7
2016-11-05T15:50:23.508Z,92.7
2016-11-05T15:51:04.044Z,92.03
2016-11-05T15:51:44.581Z,91.56
2016-11-05T15:52:25.111Z,91.17
2016-11-05T15:53:05.637Z,90.32
2016-11-05T15:53:46.152Z,89.94
2016-11-05T15:54:26.685Z,89.08
2016-11-05T15:55:07.205Z,89.84
2016-11-05T15:55:47.769Z,89.75
2016-11-05T15:56:28.279Z,89.47
2016-11-05T15:57:08.797Z,89.56
2016-11-05T15:57:49.381Z,90.42
2016-11-05T15:58:29.966Z,90.61
2016-11-05T15:59:10.486Z,90.51
2016-11-05T15:59:51.032Z,90.32
2016-11-05T16:00:31.548Z,90.32
2016-11-05T16:01:12.067Z,90.22
2016-11-05T16:01:52.575Z,89.56
2016-11-05T16:02:33.101Z,89.56
2016-11-05T16:03:13.617Z,90.32
2016-11-05T16:03:54.131Z,91.08
2016-11-05T16:04:34.674Z,90.8
2016-11-05T16:05:15.195Z,91.94
2016-11-05T16:05:55.733Z,91.84
2016-11-05T16:06:36.247Z,92.7
2016-11-05T16:07:16.788Z,92.08
2016-11-05T16:07:57.316Z,92.32
2016-11-05T16:08:37.841Z,92.32
2016-11-05T16:09:18.370Z,92.7
2016-11-05T16:09:58.880Z,93.13
2016-11-05T16:10:39.406Z,93.23
2016-11-05T16:11:19.939Z,93.7
2016-11-05T16:12:01.395Z,93.89
2016-11-05T16:12:41.923Z,94.37
2016-11-05T16:13:22.433Z,94.56
2016-11-05T16:14:02.933Z,94.74
2016-11-05T16:14:43.608Z,94.93
2016-11-05T16:15:24.141Z,95.41
2016-11-05T16:16:04.643Z,95.51
2016-11-05T16:16:45.152Z,95.7
2016-11-05T16:17:25.675Z,96.08
2016-11-05T16:18:06.417Z,95.89
2016-11-05T16:18:46.919Z,96.22
2016-11-05T16:19:27.452Z,96.26
2016-11-05T16:20:07.987Z,96.12
2016-11-05T16:20:48.517Z,95.75
2016-11-05T16:21:29.037Z,96.6
2016-11-05T16:22:09.627Z,96.5
2016-11-05T16:22:50.205Z,96.5
2016-11-05T16:23:30.722Z,96.41
2016-11-05T16:24:11.268Z,96.79
2016-11-05T16:24:51.764Z,96.89
2016-11-05T16:25:32.331Z,96.98
2016-11-05T16:26:12.895Z,97.45
2016-11-05T16:26:53.444Z,97.17
2016-11-05T16:27:33.964Z,97.6
2016-11-05T16:28:14.491Z,97.31
2016-11-05T16:28:55.021Z,97.97
2016-11-05T16:29:35.554Z,97.5
2016-11-05T16:30:16.075Z,97.41
2016-11-05T16:30:56.621Z,97.97
2016-11-05T16:31:37.166Z,97.78
2016-11-05T16:32:17.685Z,98.17
2016-11-05T16:32:58.200Z,98.17
2016-11-05T16:33:38.728Z,98.17
2016-11-05T16:34:19.257Z,98.07
2016-11-05T16:34:59.793Z,98.36
2016-11-05T16:35:40.320Z,98.17
2016-11-05T16:36:20.833Z,98.17
2016-11-05T16:37:01.374Z,98.26
2016-11-05T16:37:41.915Z,97.78
2016-11-05T16:38:22.456Z,98.07
2016-11-05T16:39:02.998Z,98.36
2016-11-05T16:39:43.514Z,98.07
2016-11-05T16:40:24.036Z,98.36
2016-11-05T16:41:04.589Z,98.45
2016-11-05T16:41:45.113Z,98.21
2016-11-05T16:42:25.651Z,98.31
2016-11-05T16:43:06.197Z,98.31
2016-11-05T16:43:46.703Z,98.4
2016-11-05T16:44:27.228Z,98.5
2016-11-05T16:45:07.723Z,99.26
2016-11-05T16:45:48.258Z,98.5
2016-11-05T16:46:28.771Z,98.69
2016-11-05T16:47:09.311Z,98.5
2016-11-05T16:47:49.849Z,98.69
2016-11-05T16:48:30.390Z,98.31
2016-11-05T16:49:10.913Z,99.16
2016-11-05T16:49:51.441Z,99.26
2016-11-05T16:50:31.971Z,99.26
2016-11-05T16:51:12.485Z,99.07
2016-11-05T16:51:53.028Z,99.16
2016-11-05T16:52:33.547Z,99.07
2016-11-05T16:53:14.082Z,99.26
2016-11-05T16:53:54.615Z,98.88
2016-11-05T16:54:35.154Z,98.79
2016-11-05T16:55:15.740Z,98.88
2016-11-05T16:55:56.287Z,98.73
2016-11-05T16:56:36.812Z,98.73
2016-11-05T16:57:17.337Z,98.73
2016-11-05T16:57:57.870Z,98.92
2016-11-05T16:58:38.395Z,98.92
2016-11-05T16:59:18.909Z,98.92
2016-11-05T16:59:59.436Z,99.21
2016-11-05T17:00:39.963Z,99.11
2016-11-05T17:01:20.486Z,99.11
2016-11-05T17:02:01.035Z,99.21
2016-11-05T17:02:41.572Z,99.21
2016-11-05T17:03:22.101Z,99.49
2016-11-05T17:04:02.631Z,99.21
2016-11-05T17:04:43.146Z,99.4
2016-11-05T17:05:23.663Z,99.4
2016-11-05T17:06:04.192Z,99.11
2016-11-05T17:06:44.717Z,99.21
2016-11-05T17:07:25.250Z,99.49
2016-11-05T17:08:05.773Z,99.4
2016-11-05T17:08:46.301Z,99.49
2016-11-05T17:09:26.833Z,99.4
2016-11-05T17:10:07.360Z,99.49
2016-11-05T17:10:47.882Z,99.68
2016-11-05T17:11:28.417Z,99.77
2016-11-05T17:12:08.962Z,99.49
2016-11-05T17:12:49.490Z,99.58
2016-11-05T17:13:30.024Z,99.68
2016-11-05T17:14:10.539Z,99.68
2016-11-05T17:14:51.053Z,99.99
2016-11-05T17:15:31.559Z,99.99
2016-11-05T17:16:12.102Z,99.97
2016-11-05T17:16:52.641Z,99.99
2016-11-05T17:17:33.157Z,99.87
2016-11-05T17:18:13.670Z,99.99
2016-11-05T17:18:54.200Z,99.99
2016-11-05T17:19:34.720Z,99.99
2016-11-05T17:20:15.274Z,99.99
2016-11-05T17:20:55.802Z,99.99
2016-11-05T17:21:36.325Z,99.99
2016-11-05T17:22:16.855Z,99.99
2016-11-05T17:22:57.392Z,99.99
2016-11-05T17:23:37.934Z,99.99
2016-11-05T17:24:18.450Z,99.99
2016-11-05T17:24:58.952Z,99.99
2016-11-05T17:25:39.452Z,99.99
2016-11-05T17:26:19.976Z,99.99
2016-11-05T17:27:00.532Z,99.99
2016-11-05T17:27:41.047Z,99.99
2016-11-05T17:28:21.583Z,99.99
2016-11-05T17:29:02.118Z,99.99
2016-11-05T17:29:42.657Z,99.99
2016-11-05T17:30:23.181Z,99.99
2016-11-05T17:31:03.717Z,99.99
2016-11-05T17:31:44.256Z,99.99
2016-11-05T17:32:24.790Z,99.99
2016-11-05T17:33:05.311Z,99.99
2016-11-05T17:33:45.828Z,99.99
2016-11-05T17:34:26.361Z,99.99
2016-11-05T17:35:06.900Z,99.99
2016-11-05T17:35:47.439Z,99.99
2016-11-05T17:36:27.976Z,99.99
2016-11-05T17:37:08.520Z,99.99
2016-11-05T17:37:49.043Z,99.99
2016-11-05T17:38:29.572Z,99.99
2016-11-05T17:39:10.103Z,99.99
2016-11-05T17:39:50.633Z,99.99
2016-11-05T17:40:31.147Z,99.99
2016-11-05T17:41:11.670Z,99.99
2016-11-05T17:41:52.195Z,99.99
2016-11-05T17:42:32.736Z,99.99
2016-11-05T17:43:13.278Z,99.99
2016-11-05T17:43:53.813Z,99.99
2016-11-05T17:44:34.339Z,99.99
2016-11-05T17:45:14.862Z,99.99
2016-11-05T17:45:55.525Z,99.99
2016-11-05T17:46:36.061Z,99.99
2016-11-05T17:47:16.599Z,99.99
2016-11-05T17:47:57.134Z,99.99
2016-11-05T17:48:37.653Z,99.99
2016-11-05T17:49:18.177Z,99.99
2016-11-05T17:49:58.702Z,99.99
2016-11-05T17:50:39.373Z,99.99
2016-11-05T17:51:19.901Z,99.99
2016-11-05T17:52:00.430Z,99.99
2016-11-05T17:52:40.965Z,99.99
2016-11-05T17:53:21.474Z,99.99
2016-11-05T17:54:02.015Z,99.99
2016-11-05T17:54:42.543Z,99.99
2016-11-05T17:55:23.070Z,99.99
2016-11-05T17:56:03.600Z,99.99
2016-11-05T17:56:44.130Z,99.99
2016-11-05T17:57:24.660Z,99.99
2016-11-05T17:58:05.194Z,99.99
2016-11-05T17:58:45.712Z,99.99
2016-11-05T17:59:26.288Z,99.99
2016-11-05T18:00:06.784Z,99.99
2016-11-05T18:00:47.315Z,99.99
2016-11-05T18:01:27.860Z,99.99
2016-11-05T18:02:08.403Z,99.99
2016-11-05T18:02:48.904Z,99.99
2016-11-05T18:03:29.416Z,99.99
2016-11-05T18:04:09.952Z,99.99
2016-11-05T18:04:50.460Z,99.99
2016-11-05T18:05:30.987Z,99.99
2016-11-05T18:06:11.531Z,99.99
2016-11-05T18:06:52.054Z,99.99
2016-11-05T18:07:32.588Z,99.99
2016-11-05T18:08:13.110Z,99.99
2016-11-05T18:08:53.641Z,99.99
2016-11-05T18:09:34.174Z,99.99
2016-11-05T18:10:14.709Z,99.99
2016-11-05T18:10:55.227Z,99.99
2016-11-05T18:11:35.764Z,99.99
2016-11-05T18:12:16.270Z,99.99
2016-11-05T18:12:56.817Z,99.99
2016-11-05T18:13:37.328Z,99.99
2016-11-05T18:14:17.839Z,99.99
2016-11-05T18:14:58.368Z,99.99
2016-11-05T18:15:38.909Z,99.99
2016-11-05T18:16:19.442Z,99.99
2016-11-05T18:16:59.962Z,99.99
2016-11-05T18:17:40.496Z,99.99
2016-11-05T18:18:21.040Z,99.99
2016-11-05T18:19:01.582Z,99.99
2016-11-05T18:19:42.123Z,99.99
2016-11-05T18:20:22.657Z,99.99
2016-11-05T18:21:03.193Z,99.99
2016-11-05T18:21:43.716Z,99.99
2016-11-05T18:22:24.233Z,99.99
2016-11-05T18:23:04.771Z,99.99
2016-11-05T18:23:45.298Z,99.99
2016-11-05T18:24:25.823Z,99.99
2016-11-05T18:25:06.349Z,99.99
2016-11-05T18:25:46.879Z,99.99
2016-11-05T18:26:27.408Z,99.99
2016-11-05T18:27:07.948Z,99.99
2016-11-05T18:27:48.470Z,99.99
2016-11-05T18:28:28.986Z,99.99
2016-11-05T18:29:09.524Z,99.99
2016-11-05T18:29:50.076Z,99.99
2016-11-05T18:30:30.603Z,99.99
2016-11-05T18:31:11.116Z,99.99
2016-11-05T18:31:51.655Z,99.99
2016-11-05T18:32:32.193Z,99.99
2016-11-05T18:33:12.730Z,99.99
2016-11-05T18:33:53.242Z,99.99
2016-11-05T18:34:33.770Z,99.99
2016-11-05T18:35:14.297Z,99.99
2016-11-05T18:35:54.838Z,99.99
2016-11-05T18:36:35.355Z,99.99
2016-11-05T18:37:15.871Z,99.99
2016-11-05T18:37:56.398Z,99.99
2016-11-05T18:38:36.943Z,99.99
2016-11-05T18:39:17.476Z,99.99
2016-11-05T18:39:57.994Z,99.99
2016-11-05T18:40:38.501Z,99.99
2016-11-05T18:41:19.036Z,99.99
2016-11-05T18:41:59.564Z,99.99
2016-11-05T18:42:40.097Z,99.99
2016-11-05T18:43:20.631Z,99.99
2016-11-05T18:44:01.155Z,99.99
2016-11-05T18:44:41.745Z,99.99
2016-11-05T18:45:22.282Z,99.99
2016-11-05T18:46:02.807Z,99.99
2016-11-05T18:46:43.349Z,99.99
2016-11-05T18:47:23.892Z,99.99
2016-11-05T18:48:04.409Z,99.99
2016-11-05T18:48:44.944Z,99.99
2016-11-05T18:49:25.461Z,99.99
2016-11-05T18:50:06.007Z,99.99
2016-11-05T18:50:46.540Z,99.99
2016-11-05T18:51:27.081Z,99.99
2016-11-05T18:52:07.579Z,99.99
2016-11-05T18:52:48.106Z,99.99
2016-11-05T18:53:28.639Z,99.99
2016-11-05T18:54:09.163Z,99.99
2016-11-05T18:54:49.682Z,99.99
2016-11-05T18:55:30.208Z,99.99
2016-11-05T18:56:10.743Z,99.99
2016-11-05T18:56:51.258Z,99.99
2016-11-05T18:57:31.812Z,99.99
2016-11-05T18:58:12.309Z,99.99
2016-11-05T18:58:52.853Z,99.99
2016-11-05T18:59:33.383Z,99.99
2016-11-05T19:00:13.966Z,99.99
2016-11-05T19:00:54.509Z,99.99
2016-11-05T19:01:35.033Z,99.99
2016-11-05T19:02:15.575Z,99.99
2016-11-05T19:02:56.084Z,99.99
2016-11-05T19:03:36.591Z,99.99
2016-11-05T19:04:17.133Z,99.99
2016-11-05T19:04:57.668Z,99.99
2016-11-05T19:05:38.192Z,99.99
2016-11-05T19:06:18.718Z,99.99
2016-11-05T19:06:59.259Z,99.99
2016-11-05T19:07:39.802Z,99.99
2016-11-05T19:08:20.320Z,99.99
2016-11-05T19:09:00.854Z,99.99
2016-11-05T19:09:41.383Z,99.99
2016-11-05T19:10:21.919Z,99.99
2016-11-05T19:11:02.445Z,99.99
2016-11-05T19:11:42.994Z,99.99
2016-11-05T19:12:23.514Z,99.99
2016-11-05T19:13:04.023Z,99.92
2016-11-05T19:13:44.542Z,99.83
2016-11-05T19:14:25.061Z,99.99
2016-11-05T19:15:05.592Z,99.99
2016-11-05T19:15:46.144Z,99.92
2016-11-05T19:16:26.672Z,99.99
2016-11-05T19:17:07.207Z,99.99
2016-11-05T19:17:47.712Z,99.99
2016-11-05T19:18:28.228Z,99.99
2016-11-05T19:19:08.758Z,99.99
2016-11-05T19:19:49.307Z,99.99
2016-11-05T19:20:29.821Z,99.99
2016-11-05T19:21:10.346Z,99.99
2016-11-05T19:21:50.877Z,99.99
2016-11-05T19:22:31.412Z,99.99
2016-11-05T19:23:11.919Z,99.99
2016-11-05T19:23:52.445Z,99.99
2016-11-05T19:24:32.969Z,99.99
2016-11-05T19:25:13.507Z,99.92
2016-11-05T19:25:54.042Z,99.99
2016-11-05T19:26:34.561Z,99.99
2016-11-05T19:27:15.089Z,99.99
2016-11-05T19:27:55.614Z,99.99
2016-11-05T19:28:36.129Z,99.99
2016-11-05T19:29:16.673Z,99.99
2016-11-05T19:29:57.220Z,99.99
2016-11-05T19:30:37.733Z,99.99
2016-11-05T19:31:18.259Z,99.54
2016-11-05T19:31:58.772Z,99.64
2016-11-05T19:32:39.296Z,99.54
2016-11-05T19:33:19.830Z,99.92
2016-11-05T19:34:00.372Z,99.99
2016-11-05T19:34:40.887Z,99.35
2016-11-05T19:35:21.408Z,99.26
2016-11-05T19:36:01.935Z,99.26
2016-11-05T19:36:42.465Z,99.54
2016-11-05T19:37:22.995Z,99.21
2016-11-05T19:38:03.524Z,99.02
2016-11-05T19:38:44.055Z,99.5
2016-11-05T19:39:24.583Z,99.21
2016-11-05T19:40:05.130Z,99.02
2016-11-05T19:40:45.658Z,99.3
2016-11-05T19:41:26.200Z,98.74
2016-11-05T19:42:06.706Z,98.74
2016-11-05T19:42:47.227Z,98.55
2016-11-05T19:43:27.776Z,99.3
2016-11-05T19:44:08.308Z,99.3
2016-11-05T19:44:48.830Z,99.3
2016-11-05T19:45:29.356Z,99.59
2016-11-05T19:46:09.896Z,99.3
2016-11-05T19:46:50.432Z,97.6
2016-11-05T19:47:30.952Z,96.93
2016-11-05T19:48:11.465Z,96.93
2016-11-05T19:48:52.006Z,97.78
2016-11-05T19:49:32.545Z,97.6
2016-11-05T19:50:13.088Z,97.12
2016-11-05T19:50:53.616Z,96.74
2016-11-05T19:51:34.141Z,96.26
2016-11-05T19:52:14.666Z,93.23
2016-11-05T19:52:55.191Z,91.71
2016-11-05T19:53:35.718Z,92.27
2016-11-05T19:54:16.245Z,92.27
2016-11-05T19:54:56.762Z,92.37
2016-11-05T19:55:37.294Z,92.46
2016-11-05T19:56:17.819Z,93.04
2016-11-05T19:56:58.317Z,93.51
2016-11-05T19:57:38.845Z,93.6
2016-11-05T19:58:19.380Z,93.6
2016-11-05T19:58:59.889Z,93.04
2016-11-05T19:59:40.415Z,92.18
2016-11-05T20:00:20.944Z,91.52
2016-11-05T20:01:01.480Z,91.23
2016-11-05T20:01:42.020Z,90.47
2016-11-05T20:02:22.559Z,91.13
2016-11-05T20:03:03.057Z,91.33
2016-11-05T20:03:43.585Z,91.89
2016-11-05T20:04:24.109Z,92.27
2016-11-05T20:05:04.636Z,91.52
2016-11-05T20:05:45.147Z,91.23
2016-11-05T20:06:25.665Z,90.66
2016-11-05T20:07:06.188Z,90.94
2016-11-05T20:07:46.696Z,90.66
2016-11-05T20:08:27.246Z,90.66
2016-11-05T20:09:07.798Z,90.47
2016-11-05T20:09:48.294Z,89.9
2016-11-05T20:10:28.814Z,89.9
2016-11-05T20:11:09.331Z,89.8
2016-11-05T20:11:49.864Z,90.56
2016-11-05T20:12:30.387Z,90.85
2016-11-05T20:13:10.898Z,91.61
2016-11-05T20:13:51.421Z,91.33
2016-11-05T20:14:31.961Z,90.66
2016-11-05T20:15:12.492Z,90.56
2016-11-05T20:15:53.039Z,91.33
2016-11-05T20:16:33.547Z,91.52
2016-11-05T20:17:14.075Z,91.23
2016-11-05T20:17:54.587Z,92.08
2016-11-05T20:18:35.110Z,92.08
2016-11-05T20:19:15.647Z,91.61
2016-11-05T20:19:56.188Z,91.33
2016-11-05T20:20:36.704Z,91.04
2016-11-05T20:21:17.221Z,90.47
2016-11-05T20:21:57.744Z,90.47
2016-11-05T20:22:38.271Z,88.57
2016-11-05T20:23:18.814Z,88.57
2016-11-05T20:23:59.347Z,88.38
2016-11-05T20:24:39.874Z,88.95
2016-11-05T20:25:20.406Z,88.95
2016-11-05T20:26:00.952Z,88.57
2016-11-05T20:26:41.471Z,89.42
2016-11-05T20:27:21.995Z,89.71
2016-11-05T20:28:02.523Z,90.37
2016-11-05T20:28:43.076Z,90.75
2016-11-05T20:29:23.606Z,90.85
2016-11-05T20:30:04.150Z,90.47
2016-11-05T20:30:44.674Z,90.66
2016-11-05T20:31:25.216Z,90.75
2016-11-05T20:32:05.746Z,91.23
2016-11-05T20:32:46.283Z,91.33
2016-11-05T20:33:26.811Z,91.89
2016-11-05T20:34:07.350Z,92.18
2016-11-05T20:34:47.883Z,92.75
2016-11-05T20:35:28.413Z,92.94